createdAt,value
2019-04-26T00:00:21.875Z,861.00
2019-04-26T00:01:22.363Z,861.00
2019-04-26T00:02:22.802Z,861.00
2019-04-26T00:03:23.233Z,861.00
2019-04-26T00:04:22.794Z,860.00
2019-04-26T00:05:34.502Z,860.00
2019-04-26T00:06:23.581Z,864.00
2019-04-26T00:07:24.963Z,865.00
2019-04-26T00:08:24.350Z,868.00
2019-04-26T00:09:25.661Z,866.00
2019-04-26T00:10:26.195Z,867.00
2019-04-26T00:11:26.099Z,866.00
2019-04-26T00:12:27.385Z,865.00
2019-04-26T00:13:26.732Z,866.00
2019-04-26T00:14:27.024Z,866.00
2019-04-26T00:15:28.522Z,865.00
2019-04-26T00:16:27.946Z,864.00
2019-04-26T00:17:29.402Z,861.00
2019-04-26T00:18:29.403Z,861.00
2019-04-26T00:19:29.923Z,859.00
2019-04-26T00:20:29.442Z,860.00
2019-04-26T00:21:30.921Z,860.00
2019-04-26T00:22:30.390Z,860.00
2019-04-26T00:23:31.814Z,859.00
2019-04-26T00:24:31.224Z,859.00
2019-04-26T00:25:32.640Z,859.00
2019-04-26T00:26:33.045Z,858.00
2019-04-26T00:27:33.480Z,859.00
2019-04-26T00:28:34.060Z,858.00
2019-04-26T00:29:34.474Z,857.00
2019-04-26T00:30:35.218Z,856.00
2019-04-26T00:31:35.797Z,857.00
2019-04-26T00:32:36.188Z,857.00
2019-04-26T00:32:44.743Z,856.00
2019-04-26T00:33:46.120Z,857.00
2019-04-26T00:34:46.741Z,858.00
2019-04-26T00:35:47.891Z,861.00
2019-04-26T00:36:47.165Z,859.00
2019-04-26T00:37:48.419Z,858.00
2019-04-26T00:38:48.693Z,858.00
2019-04-26T00:39:48.966Z,860.00
2019-04-26T00:40:49.290Z,852.00
2019-04-26T00:41:49.742Z,854.00
2019-04-26T00:42:50.176Z,865.00
2019-04-26T00:43:50.531Z,856.00
2019-04-26T00:44:50.753Z,864.00
2019-04-26T00:45:51.066Z,861.00
2019-04-26T00:46:51.745Z,861.00
2019-04-26T00:47:52.154Z,852.00
2019-04-26T00:48:52.719Z,852.00
2019-04-26T00:49:52.133Z,865.00
2019-04-26T00:50:53.627Z,855.00
2019-04-26T00:51:54.100Z,865.00
2019-04-26T00:52:54.555Z,860.00
2019-04-26T00:53:54.026Z,859.00
2019-04-26T00:54:55.400Z,859.00
2019-04-26T00:55:55.465Z,857.00
2019-04-26T00:56:55.893Z,858.00
2019-04-26T00:57:56.477Z,859.00
2019-04-26T00:58:56.906Z,858.00
2019-04-26T00:59:57.447Z,857.00
2019-04-26T01:00:57.864Z,857.00
2019-04-26T01:01:58.361Z,857.00
2019-04-26T01:02:58.704Z,860.00
2019-04-26T01:03:59.174Z,859.00
2019-04-26T01:04:59.531Z,859.00
2019-04-26T01:06:00.407Z,859.00
2019-04-26T01:06:59.188Z,859.00
2019-04-26T01:08:00.661Z,859.00
2019-04-26T01:09:01.161Z,861.00
2019-04-26T01:10:01.408Z,866.00
2019-04-26T01:11:02.004Z,865.00
2019-04-26T01:12:02.421Z,865.00
2019-04-26T01:13:02.810Z,864.00
2019-04-26T01:14:03.215Z,861.00
2019-04-26T01:15:03.698Z,867.00
2019-04-26T01:16:04.212Z,867.00
2019-04-26T01:17:04.641Z,866.00
2019-04-26T01:18:04.967Z,867.00
2019-04-26T01:19:05.668Z,866.00
2019-04-26T01:20:06.062Z,865.00
2019-04-26T01:20:14.657Z,864.00
2019-04-26T01:21:17.110Z,865.00
2019-04-26T01:22:15.557Z,861.00
2019-04-26T01:23:17.493Z,861.00
2019-04-26T01:24:16.893Z,861.00
2019-04-26T01:25:17.518Z,861.00
2019-04-26T01:26:17.733Z,864.00
2019-04-26T01:27:17.128Z,866.00
2019-04-26T01:28:18.490Z,866.00
2019-04-26T01:29:18.599Z,867.00
2019-04-26T01:30:18.356Z,868.00
2019-04-26T01:31:18.640Z,866.00
2019-04-26T01:32:19.215Z,865.00
2019-04-26T01:33:20.033Z,865.00
2019-04-26T01:34:20.343Z,865.00
2019-04-26T01:35:20.369Z,864.00
2019-04-26T01:36:20.538Z,866.00
2019-04-26T01:37:20.662Z,866.00
2019-04-26T01:38:21.794Z,869.00
2019-04-26T01:39:22.349Z,868.00
2019-04-26T01:40:22.040Z,867.00
2019-04-26T01:41:22.362Z,856.00
2019-04-26T01:42:22.671Z,866.00
2019-04-26T01:43:24.424Z,867.00
2019-04-26T01:44:24.558Z,868.00
2019-04-26T01:45:23.711Z,868.00
2019-04-26T01:46:25.071Z,868.00
2019-04-26T01:47:26.254Z,867.00
2019-04-26T01:48:25.070Z,867.00
2019-04-26T01:49:26.189Z,867.00
2019-04-26T01:50:25.751Z,866.00
2019-04-26T01:51:27.133Z,866.00
2019-04-26T01:52:27.782Z,861.00
2019-04-26T01:53:28.795Z,861.00
2019-04-26T01:54:27.830Z,865.00
2019-04-26T01:55:29.073Z,861.00
2019-04-26T01:56:29.210Z,864.00
2019-04-26T01:57:29.437Z,861.00
2019-04-26T01:58:29.335Z,860.00
2019-04-26T01:59:29.527Z,859.00
2019-04-26T02:00:29.583Z,859.00
2019-04-26T02:01:29.850Z,859.00
2019-04-26T02:02:32.001Z,858.00
2019-04-26T02:03:30.615Z,858.00
2019-04-26T02:04:32.070Z,858.00
2019-04-26T02:05:32.017Z,858.00
2019-04-26T02:06:34.910Z,857.00
2019-04-26T02:07:32.522Z,857.00
2019-04-26T02:08:32.483Z,858.00
2019-04-26T02:09:32.793Z,858.00
2019-04-26T02:10:32.940Z,859.00
2019-04-26T02:11:34.363Z,859.00
2019-04-26T02:12:34.763Z,865.00
2019-04-26T02:13:35.139Z,868.00
2019-04-26T02:14:35.547Z,869.00
2019-04-26T02:15:35.847Z,869.00
2019-04-26T02:16:36.155Z,869.00
2019-04-26T02:17:36.389Z,868.00
2019-04-26T02:18:36.775Z,867.00
2019-04-26T02:19:37.156Z,867.00
2019-04-26T02:20:37.431Z,866.00
2019-04-26T02:21:37.813Z,866.00
2019-04-26T02:22:38.478Z,866.00
2019-04-26T02:23:38.154Z,868.00
2019-04-26T02:24:39.418Z,867.00
2019-04-26T02:25:39.755Z,865.00
2019-04-26T02:26:40.104Z,865.00
2019-04-26T02:27:40.594Z,862.00
2019-04-26T02:28:41.236Z,866.00
2019-04-26T02:29:41.693Z,861.00
2019-04-26T02:30:42.246Z,861.00
2019-04-26T02:31:42.717Z,860.00
2019-04-26T02:32:43.072Z,859.00
2019-04-26T02:33:43.607Z,859.00
2019-04-26T02:34:44.067Z,860.00
2019-04-26T02:34:52.599Z,860.00
2019-04-26T02:35:53.945Z,861.00
2019-04-26T02:36:58.513Z,861.00
2019-04-26T02:37:53.736Z,865.00
2019-04-26T02:38:55.405Z,861.00
2019-04-26T02:39:55.696Z,861.00
2019-04-26T02:40:55.958Z,865.00
2019-04-26T02:41:56.245Z,865.00
2019-04-26T02:42:55.649Z,862.00
2019-04-26T02:43:56.918Z,860.00
2019-04-26T02:44:57.505Z,860.00
2019-04-26T02:45:58.058Z,849.00
2019-04-26T02:46:58.384Z,850.00
2019-04-26T02:47:58.844Z,853.00
2019-04-26T02:48:59.450Z,861.00
2019-04-26T02:49:59.742Z,852.00
2019-04-26T02:51:00.156Z,861.00
2019-04-26T02:52:00.527Z,860.00
2019-04-26T02:53:00.930Z,859.00
2019-04-26T02:54:01.407Z,861.00
2019-04-26T02:55:01.848Z,865.00
2019-04-26T02:56:02.772Z,866.00
2019-04-26T02:57:03.211Z,868.00
2019-04-26T02:58:03.566Z,867.00
2019-04-26T02:59:03.973Z,871.00
2019-04-26T03:00:04.370Z,873.00
2019-04-26T03:01:04.707Z,870.00
2019-04-26T03:02:05.052Z,871.00
2019-04-26T03:03:05.311Z,869.00
2019-04-26T03:04:05.629Z,869.00
2019-04-26T03:05:06.426Z,873.00
2019-04-26T03:06:06.760Z,873.00
2019-04-26T03:07:07.384Z,870.00
2019-04-26T03:08:07.851Z,869.00
2019-04-26T03:09:08.212Z,868.00
2019-04-26T03:10:08.770Z,869.00
2019-04-26T03:11:07.763Z,869.00
2019-04-26T03:12:09.202Z,872.00
2019-04-26T03:13:09.580Z,871.00
2019-04-26T03:14:09.993Z,871.00
2019-04-26T03:15:14.120Z,869.00
2019-04-26T03:16:09.875Z,870.00
2019-04-26T03:17:11.272Z,871.00
2019-04-26T03:18:11.702Z,871.00
2019-04-26T03:19:12.131Z,871.00
2019-04-26T03:20:12.451Z,870.00
2019-04-26T03:21:13.047Z,870.00
2019-04-26T03:21:21.570Z,870.00
2019-04-26T03:22:22.860Z,870.00
2019-04-26T03:23:23.224Z,869.00
2019-04-26T03:24:23.643Z,873.00
2019-04-26T03:25:23.890Z,864.00
2019-04-26T03:26:24.208Z,870.00
2019-04-26T03:27:24.560Z,868.00
2019-04-26T03:28:25.142Z,856.00
2019-04-26T03:29:24.428Z,855.00
2019-04-26T03:30:25.941Z,856.00
2019-04-26T03:31:25.352Z,865.00
2019-04-26T03:32:26.754Z,865.00
2019-04-26T03:33:27.161Z,852.00
2019-04-26T03:34:26.497Z,861.00
2019-04-26T03:35:27.889Z,861.00
2019-04-26T03:36:28.151Z,865.00
2019-04-26T03:37:28.498Z,864.00
2019-04-26T03:38:29.126Z,865.00
2019-04-26T03:39:29.520Z,864.00
2019-04-26T03:40:29.905Z,852.00
2019-04-26T03:41:30.164Z,864.00
2019-04-26T03:42:30.606Z,865.00
2019-04-26T03:43:30.843Z,865.00
2019-04-26T03:44:31.202Z,864.00
2019-04-26T03:45:30.429Z,861.00
2019-04-26T03:46:31.813Z,864.00
2019-04-26T03:47:30.995Z,865.00
2019-04-26T03:48:33.929Z,865.00
2019-04-26T03:49:31.843Z,865.00
2019-04-26T03:50:35.242Z,865.00
2019-04-26T03:51:33.808Z,865.00
2019-04-26T03:52:35.334Z,864.00
2019-04-26T03:53:35.464Z,864.00
2019-04-26T03:55:54.648Z,866.00
2019-04-26T03:56:55.165Z,867.00
2019-04-26T03:57:56.516Z,866.00
2019-04-26T03:58:56.780Z,866.00
2019-04-26T03:59:57.323Z,856.00
2019-04-26T04:00:57.663Z,855.00
2019-04-26T04:01:58.109Z,855.00
2019-04-26T04:02:58.657Z,855.00
2019-04-26T04:03:58.988Z,855.00
2019-04-26T04:04:59.269Z,854.00
2019-04-26T04:05:59.715Z,855.00
2019-04-26T04:07:04.724Z,857.00
2019-04-26T04:07:59.698Z,869.00
2019-04-26T04:09:01.148Z,869.00
2019-04-26T04:10:01.657Z,871.00
2019-04-26T04:11:02.109Z,871.00
2019-04-26T04:12:10.818Z,871.00
2019-04-26T04:13:01.943Z,869.00
2019-04-26T04:14:03.456Z,870.00
2019-04-26T04:15:02.657Z,872.00
2019-04-26T04:16:02.919Z,869.00
2019-04-26T04:17:04.327Z,868.00
2019-04-26T04:18:04.624Z,867.00
2019-04-26T04:19:04.899Z,867.00
2019-04-26T04:20:05.269Z,865.00
2019-04-26T04:21:05.628Z,866.00
2019-04-26T04:22:05.120Z,866.00
2019-04-26T04:23:06.461Z,865.00
2019-04-26T04:24:06.708Z,865.00
2019-04-26T04:25:07.024Z,865.00
2019-04-26T04:26:07.518Z,866.00
2019-04-26T04:27:07.909Z,865.00
2019-04-26T04:28:08.360Z,867.00
2019-04-26T04:29:08.708Z,867.00
2019-04-26T04:30:09.123Z,869.00
2019-04-26T04:31:09.484Z,869.00
2019-04-26T04:32:10.192Z,868.00
2019-04-26T04:33:09.932Z,869.00
2019-04-26T04:34:11.438Z,869.00
2019-04-26T04:35:11.954Z,869.00
2019-04-26T04:36:12.410Z,869.00
2019-04-26T04:37:12.661Z,869.00
2019-04-26T04:38:12.961Z,868.00
2019-04-26T04:39:13.495Z,867.00
2019-04-26T04:40:12.784Z,869.00
2019-04-26T04:41:14.065Z,870.00
2019-04-26T04:42:14.447Z,868.00
2019-04-26T04:42:22.990Z,869.00
2019-04-26T04:43:24.506Z,868.00
2019-04-26T04:44:23.760Z,858.00
2019-04-26T04:45:24.025Z,868.00
2019-04-26T04:46:25.611Z,868.00
2019-04-26T04:47:25.801Z,859.00
2019-04-26T04:48:25.438Z,867.00
2019-04-26T04:49:26.887Z,866.00
2019-04-26T04:50:27.256Z,857.00
2019-04-26T04:51:27.801Z,857.00
2019-04-26T04:52:28.294Z,856.00
2019-04-26T04:53:28.753Z,867.00
2019-04-26T04:54:29.114Z,866.00
2019-04-26T04:55:29.485Z,866.00
2019-04-26T04:56:29.755Z,867.00
2019-04-26T04:57:30.380Z,866.00
2019-04-26T04:58:29.680Z,868.00
2019-04-26T04:59:30.958Z,868.00
2019-04-26T05:00:31.262Z,868.00
2019-04-26T05:01:32.017Z,870.00
2019-04-26T05:02:31.385Z,869.00
2019-04-26T05:03:31.705Z,868.00
2019-04-26T05:04:33.015Z,868.00
2019-04-26T05:05:33.242Z,866.00
2019-04-26T05:06:33.747Z,868.00
2019-04-26T05:07:34.050Z,868.00
2019-04-26T05:08:34.449Z,866.00
2019-04-26T05:09:34.762Z,866.00
2019-04-26T05:10:35.209Z,866.00
2019-04-26T05:11:35.554Z,865.00
2019-04-26T05:12:34.869Z,865.00
2019-04-26T05:13:36.160Z,866.00
2019-04-26T05:14:36.539Z,855.00
2019-04-26T05:15:37.054Z,855.00
2019-04-26T05:16:37.388Z,856.00
2019-04-26T05:17:37.742Z,866.00
2019-04-26T05:18:38.061Z,865.00
2019-04-26T05:19:38.357Z,865.00
2019-04-26T05:20:38.684Z,866.00
2019-04-26T05:21:39.111Z,867.00
2019-04-26T05:22:39.390Z,866.00
2019-04-26T05:23:39.668Z,867.00
2019-04-26T05:24:40.094Z,866.00
2019-04-26T05:25:40.592Z,865.00
2019-04-26T05:26:39.697Z,865.00
2019-04-26T05:27:40.969Z,866.00
2019-04-26T05:28:41.259Z,867.00
2019-04-26T05:29:41.743Z,868.00
2019-04-26T05:30:42.593Z,868.00
2019-04-26T05:31:45.818Z,866.00
2019-04-26T05:32:42.481Z,865.00
2019-04-26T05:33:43.831Z,865.00
2019-04-26T05:33:52.553Z,856.00
2019-04-26T05:34:52.915Z,855.00
2019-04-26T05:35:53.230Z,855.00
2019-04-26T05:36:56.807Z,854.00
2019-04-26T05:37:55.179Z,866.00
2019-04-26T05:38:55.365Z,867.00
2019-04-26T05:39:55.318Z,866.00
2019-04-26T05:40:55.643Z,866.00
2019-04-26T05:41:55.717Z,867.00
2019-04-26T05:42:55.951Z,867.00
2019-04-26T05:43:58.006Z,866.00
2019-04-26T05:44:56.792Z,867.00
2019-04-26T05:45:58.084Z,868.00
2019-04-26T05:46:57.900Z,868.00
2019-04-26T05:48:08.236Z,868.00
2019-04-26T05:48:58.498Z,868.00
2019-04-26T05:49:59.833Z,868.00
2019-04-26T05:51:00.307Z,869.00
2019-04-26T05:52:02.063Z,870.00
2019-04-26T05:53:00.365Z,870.00
2019-04-26T05:54:01.730Z,859.00
2019-04-26T05:55:02.693Z,874.00
2019-04-26T05:56:02.509Z,866.00
2019-04-26T05:57:02.659Z,862.00
2019-04-26T05:58:02.902Z,861.00
2019-04-26T05:59:03.099Z,861.00
2019-04-26T06:00:03.026Z,870.00
2019-04-26T06:01:04.111Z,869.00
2019-04-26T06:02:04.649Z,869.00
2019-04-26T06:03:05.439Z,868.00
2019-04-26T06:04:06.109Z,869.00
2019-04-26T06:05:06.266Z,871.00
2019-04-26T06:06:06.849Z,871.00
2019-04-26T06:07:07.329Z,871.00
2019-04-26T06:08:07.826Z,871.00
2019-04-26T06:09:08.257Z,871.00
2019-04-26T06:10:08.681Z,873.00
2019-04-26T06:11:09.306Z,871.00
2019-04-26T06:12:12.393Z,871.00
2019-04-26T06:13:09.248Z,871.00
2019-04-26T06:14:11.164Z,870.00
2019-04-26T06:15:11.799Z,870.00
2019-04-26T06:16:12.204Z,870.00
2019-04-26T06:17:12.959Z,870.00
2019-04-26T06:18:13.668Z,873.00
2019-04-26T06:19:14.247Z,873.00
2019-04-26T06:20:22.654Z,871.00
2019-04-26T06:21:14.567Z,870.00
2019-04-26T06:22:16.058Z,869.00
2019-04-26T06:23:16.595Z,871.00
2019-04-26T06:24:17.186Z,871.00
2019-04-26T06:25:17.599Z,871.00
2019-04-26T06:26:18.296Z,876.00
2019-04-26T06:27:18.791Z,874.00
2019-04-26T06:28:19.296Z,871.00
2019-04-26T06:29:19.963Z,869.00
2019-04-26T06:30:20.490Z,871.00
2019-04-26T06:31:21.059Z,869.00
2019-04-26T06:32:21.761Z,868.00
2019-04-26T06:33:21.307Z,868.00
2019-04-26T06:34:22.841Z,869.00
2019-04-26T06:34:31.398Z,869.00
2019-04-26T06:35:33.149Z,868.00
2019-04-26T06:36:33.791Z,869.00
2019-04-26T06:37:34.302Z,869.00
2019-04-26T06:38:43.739Z,869.00
2019-04-26T06:39:34.214Z,868.00
2019-04-26T06:40:41.793Z,868.00
2019-04-26T06:41:35.138Z,868.00
2019-04-26T06:42:35.738Z,868.00
2019-04-26T06:43:37.343Z,867.00
2019-04-26T06:44:37.774Z,867.00
2019-04-26T06:45:38.277Z,867.00
2019-04-26T06:46:38.757Z,867.00
2019-04-26T06:47:39.213Z,868.00
2019-04-26T06:48:39.715Z,868.00
2019-04-26T06:49:40.335Z,867.00
2019-04-26T06:50:40.856Z,867.00
2019-04-26T06:51:41.430Z,868.00
2019-04-26T06:52:42.037Z,868.00
2019-04-26T06:53:42.520Z,868.00
2019-04-26T06:54:43.068Z,869.00
2019-04-26T06:55:43.480Z,859.00
2019-04-26T06:56:44.203Z,858.00
2019-04-26T06:57:44.926Z,866.00
2019-04-26T06:58:45.618Z,868.00
2019-04-26T06:59:45.994Z,869.00
2019-04-26T07:00:46.895Z,860.00
2019-04-26T07:01:47.421Z,860.00
2019-04-26T07:02:47.998Z,867.00
2019-04-26T07:03:48.398Z,868.00
2019-04-26T07:04:48.881Z,867.00
2019-04-26T07:05:49.436Z,867.00
2019-04-26T07:06:49.894Z,868.00
2019-04-26T07:07:49.493Z,869.00
2019-04-26T07:08:57.696Z,868.00
2019-04-26T07:09:50.617Z,868.00
2019-04-26T07:10:52.168Z,869.00
2019-04-26T07:11:51.114Z,867.00
2019-04-26T07:12:52.748Z,868.00
2019-04-26T07:13:53.247Z,867.00
2019-04-26T07:14:54.128Z,867.00
2019-04-26T07:15:54.663Z,866.00
2019-04-26T07:16:55.208Z,866.00
2019-04-26T07:17:55.579Z,867.00
2019-04-26T07:18:56.238Z,867.00
2019-04-26T07:19:58.523Z,866.00
2019-04-26T07:20:56.228Z,869.00
2019-04-26T07:21:57.770Z,870.00
2019-04-26T07:22:58.211Z,870.00
2019-04-26T07:23:58.573Z,870.00
2019-04-26T07:24:07.114Z,869.00
2019-04-26T07:25:08.978Z,870.00
2019-04-26T07:26:08.192Z,870.00
2019-04-26T07:27:09.403Z,869.00
2019-04-26T07:28:12.218Z,870.00
2019-04-26T07:29:11.273Z,871.00
2019-04-26T07:30:12.029Z,870.00
2019-04-26T07:31:11.341Z,869.00
2019-04-26T07:32:11.792Z,869.00
2019-04-26T07:33:13.260Z,870.00
2019-04-26T07:34:13.843Z,869.00
2019-04-26T07:35:14.341Z,869.00
2019-04-26T07:36:14.817Z,868.00
2019-04-26T07:37:15.194Z,867.00
2019-04-26T07:38:15.567Z,867.00
2019-04-26T07:39:20.371Z,867.00
2019-04-26T07:40:15.457Z,867.00
2019-04-26T07:41:16.897Z,866.00
2019-04-26T07:42:17.313Z,866.00
2019-04-26T07:43:17.902Z,868.00
2019-04-26T07:44:18.106Z,871.00
2019-04-26T07:45:18.693Z,871.00
2019-04-26T07:46:19.477Z,871.00
2019-04-26T07:47:19.957Z,873.00
2019-04-26T07:48:20.581Z,871.00
2019-04-26T07:49:21.059Z,874.00
2019-04-26T07:50:21.607Z,872.00
2019-04-26T07:51:22.192Z,871.00
2019-04-26T07:52:22.610Z,864.00
2019-04-26T07:53:23.067Z,870.00
2019-04-26T07:54:23.488Z,874.00
2019-04-26T07:55:24.319Z,874.00
2019-04-26T07:56:24.030Z,873.00
2019-04-26T07:57:24.468Z,874.00
2019-04-26T07:58:25.865Z,873.00
2019-04-26T07:59:26.406Z,873.00
2019-04-26T08:00:26.852Z,873.00
2019-04-26T08:01:26.930Z,874.00
2019-04-26T08:02:27.436Z,874.00
2019-04-26T08:03:28.313Z,873.00
2019-04-26T08:04:29.606Z,876.00
2019-04-26T08:05:28.380Z,878.00
2019-04-26T08:06:29.979Z,877.00
2019-04-26T08:07:30.685Z,877.00
2019-04-26T08:08:31.299Z,876.00
2019-04-26T08:09:31.739Z,874.00
2019-04-26T08:10:32.389Z,873.00
2019-04-26T08:11:32.989Z,871.00
2019-04-26T08:12:33.427Z,870.00
2019-04-26T08:13:34.082Z,868.00
2019-04-26T08:14:34.619Z,867.00
2019-04-26T08:14:43.181Z,867.00
2019-04-26T08:15:44.662Z,867.00
2019-04-26T08:16:45.255Z,868.00
2019-04-26T08:17:45.658Z,868.00
2019-04-26T08:18:46.122Z,869.00
2019-04-26T08:19:46.618Z,867.00
2019-04-26T08:20:48.342Z,868.00
2019-04-26T08:21:47.966Z,868.00
2019-04-26T08:22:46.906Z,870.00
2019-04-26T08:23:48.327Z,871.00
2019-04-26T08:24:48.720Z,873.00
2019-04-26T08:25:49.161Z,873.00
2019-04-26T08:26:49.911Z,873.00
2019-04-26T08:27:49.928Z,870.00
2019-04-26T08:28:50.394Z,871.00
2019-04-26T08:29:50.906Z,869.00
2019-04-26T08:30:51.324Z,868.00
2019-04-26T08:31:53.627Z,868.00
2019-04-26T08:32:52.259Z,870.00
2019-04-26T08:33:52.344Z,871.00
2019-04-26T08:34:54.288Z,871.00
2019-04-26T08:35:53.501Z,870.00
2019-04-26T08:36:57.272Z,869.00
2019-04-26T08:37:54.739Z,870.00
2019-04-26T08:38:57.177Z,871.00
2019-04-26T08:39:56.772Z,861.00
2019-04-26T08:41:00.518Z,873.00
2019-04-26T08:41:57.390Z,871.00
2019-04-26T08:42:59.072Z,870.00
2019-04-26T08:44:03.254Z,869.00
2019-04-26T08:44:59.349Z,869.00
2019-04-26T08:46:03.073Z,871.00
2019-04-26T08:47:00.927Z,865.00
2019-04-26T08:48:01.334Z,864.00
2019-04-26T08:49:06.490Z,862.00
2019-04-26T08:50:02.558Z,869.00
2019-04-26T08:51:04.165Z,867.00
2019-04-26T08:52:13.909Z,866.00
2019-04-26T08:53:04.315Z,856.00
2019-04-26T08:54:06.059Z,864.00
2019-04-26T08:55:06.751Z,856.00
2019-04-26T08:56:06.363Z,867.00
2019-04-26T08:57:06.903Z,869.00
2019-04-26T08:58:08.270Z,868.00
2019-04-26T08:59:07.662Z,861.00
2019-04-26T09:00:09.530Z,860.00
2019-04-26T09:01:10.237Z,859.00
2019-04-26T09:02:11.059Z,867.00
2019-04-26T09:03:12.041Z,866.00
2019-04-26T09:04:10.841Z,866.00
2019-04-26T09:05:12.358Z,868.00
2019-04-26T09:06:12.870Z,871.00
2019-04-26T09:07:13.148Z,869.00
2019-04-26T09:08:13.277Z,867.00
2019-04-26T09:09:14.416Z,867.00
2019-04-26T09:10:13.552Z,867.00
2019-04-26T09:11:25.638Z,867.00
2019-04-26T09:12:22.868Z,867.00
2019-04-26T09:13:15.359Z,865.00
2019-04-26T09:13:23.922Z,864.00
2019-04-26T09:14:25.318Z,866.00
2019-04-26T09:15:26.074Z,865.00
2019-04-26T09:16:25.591Z,866.00
2019-04-26T09:17:27.726Z,866.00
2019-04-26T09:18:27.890Z,865.00
2019-04-26T09:19:30.588Z,866.00
2019-04-26T09:20:29.876Z,865.00
2019-04-26T09:21:28.978Z,864.00
2019-04-26T09:22:29.368Z,862.00
2019-04-26T09:23:39.944Z,866.00
2019-04-26T09:24:30.406Z,865.00
2019-04-26T09:25:34.458Z,861.00
2019-04-26T09:26:31.776Z,860.00
2019-04-26T09:27:32.177Z,865.00
2019-04-26T09:28:34.613Z,861.00
2019-04-26T09:29:34.026Z,865.00
2019-04-26T09:30:38.202Z,865.00
2019-04-26T09:31:34.045Z,865.00
2019-04-26T09:32:35.470Z,865.00
2019-04-26T09:33:37.431Z,869.00
2019-04-26T09:34:35.586Z,869.00
2019-04-26T09:35:37.070Z,867.00
2019-04-26T09:36:37.591Z,867.00
2019-04-26T09:37:38.063Z,868.00
2019-04-26T09:38:38.625Z,867.00
2019-04-26T09:39:41.553Z,866.00
2019-04-26T09:40:38.570Z,866.00
2019-04-26T09:41:40.421Z,866.00
2019-04-26T09:42:41.072Z,865.00
2019-04-26T09:43:40.443Z,866.00
2019-04-26T09:44:43.018Z,867.00
2019-04-26T09:45:41.350Z,869.00
2019-04-26T09:46:44.383Z,867.00
2019-04-26T09:47:42.370Z,866.00
2019-04-26T09:48:44.106Z,866.00
2019-04-26T09:49:44.070Z,867.00
2019-04-26T09:50:44.724Z,865.00
2019-04-26T09:51:46.247Z,866.00
2019-04-26T09:52:45.585Z,866.00
2019-04-26T09:53:47.057Z,866.00
2019-04-26T09:54:47.493Z,866.00
2019-04-26T09:55:47.912Z,861.00
2019-04-26T09:56:48.481Z,860.00
2019-04-26T09:57:49.013Z,866.00
2019-04-26T09:58:49.645Z,867.00
2019-04-26T09:59:50.164Z,867.00
2019-04-26T10:00:50.620Z,866.00
2019-04-26T10:01:51.081Z,865.00
2019-04-26T10:02:51.537Z,865.00
2019-04-26T10:03:52.337Z,861.00
2019-04-26T10:04:53.348Z,861.00
2019-04-26T10:05:55.881Z,860.00
2019-04-26T10:06:53.363Z,859.00
2019-04-26T10:07:54.803Z,859.00
2019-04-26T10:08:55.377Z,859.00
2019-04-26T10:09:56.481Z,859.00
2019-04-26T10:10:55.251Z,859.00
2019-04-26T10:11:56.821Z,859.00
2019-04-26T10:12:57.219Z,860.00
2019-04-26T10:13:05.780Z,859.00
2019-04-26T10:14:07.299Z,860.00
2019-04-26T10:15:07.344Z,860.00
2019-04-26T10:16:07.897Z,859.00
2019-04-26T10:17:11.594Z,859.00
2019-04-26T10:18:08.302Z,859.00
2019-04-26T10:19:08.578Z,859.00
2019-04-26T10:20:10.033Z,857.00
2019-04-26T10:21:10.880Z,858.00
2019-04-26T10:22:11.547Z,857.00
2019-04-26T10:23:11.995Z,859.00
2019-04-26T10:24:12.431Z,860.00
2019-04-26T10:25:16.570Z,860.00
2019-04-26T10:26:12.441Z,861.00
2019-04-26T10:27:14.019Z,865.00
2019-04-26T10:28:15.988Z,866.00
2019-04-26T10:29:13.755Z,865.00
2019-04-26T10:30:15.191Z,865.00
2019-04-26T10:31:17.231Z,865.00
2019-04-26T10:32:14.934Z,865.00
2019-04-26T10:33:16.647Z,857.00
2019-04-26T10:34:17.003Z,855.00
2019-04-26T10:35:17.503Z,856.00
2019-04-26T10:36:16.527Z,865.00
2019-04-26T10:37:18.024Z,866.00
2019-04-26T10:38:19.317Z,865.00
2019-04-26T10:39:18.349Z,865.00
2019-04-26T10:40:20.277Z,861.00
2019-04-26T10:41:20.840Z,861.00
2019-04-26T10:42:21.296Z,860.00
2019-04-26T10:43:21.855Z,859.00
2019-04-26T10:44:22.362Z,859.00
2019-04-26T10:45:23.232Z,860.00
2019-04-26T10:46:24.569Z,859.00
2019-04-26T10:47:23.138Z,860.00
2019-04-26T10:48:24.623Z,860.00
2019-04-26T10:49:26.063Z,861.00
2019-04-26T10:50:24.502Z,861.00
2019-04-26T10:51:25.886Z,861.00
2019-04-26T10:52:26.390Z,860.00
2019-04-26T10:53:30.005Z,859.00
2019-04-26T10:54:26.239Z,859.00
2019-04-26T10:55:27.760Z,858.00
2019-04-26T10:56:28.362Z,862.00
2019-04-26T10:57:28.928Z,861.00
2019-04-26T10:58:31.852Z,859.00
2019-04-26T10:59:31.662Z,859.00
2019-04-26T11:00:29.679Z,859.00
2019-04-26T11:01:30.181Z,858.00
2019-04-26T11:02:31.819Z,849.00
2019-04-26T11:03:34.946Z,852.00
2019-04-26T11:04:32.025Z,849.00
2019-04-26T11:05:33.051Z,857.00
2019-04-26T11:06:33.777Z,857.00
2019-04-26T11:07:34.380Z,856.00
2019-04-26T11:07:43.437Z,857.00
2019-04-26T11:08:44.773Z,856.00
2019-04-26T11:09:45.360Z,856.00
2019-04-26T11:10:48.922Z,860.00
2019-04-26T11:11:45.218Z,861.00
2019-04-26T11:12:46.873Z,867.00
2019-04-26T11:13:47.493Z,865.00
2019-04-26T11:14:48.194Z,865.00
2019-04-26T11:15:47.537Z,860.00
2019-04-26T11:16:49.179Z,860.00
2019-04-26T11:17:50.130Z,859.00
2019-04-26T11:18:49.141Z,860.00
2019-04-26T11:19:50.253Z,859.00
2019-04-26T11:20:51.079Z,859.00
2019-04-26T11:21:54.725Z,859.00
2019-04-26T11:22:51.523Z,860.00
2019-04-26T11:23:53.235Z,858.00
2019-04-26T11:24:54.805Z,859.00
2019-04-26T11:25:53.473Z,859.00
2019-04-26T11:26:53.868Z,857.00
2019-04-26T11:27:55.219Z,858.00
2019-04-26T11:28:57.151Z,858.00
2019-04-26T11:29:55.268Z,858.00
2019-04-26T11:30:57.371Z,858.00
2019-04-26T11:31:58.525Z,859.00
2019-04-26T11:32:56.506Z,860.00
2019-04-26T11:34:05.109Z,859.00
2019-04-26T11:34:58.793Z,860.00
2019-04-26T11:35:58.614Z,860.00
2019-04-26T11:37:00.198Z,858.00
2019-04-26T11:38:00.894Z,859.00
2019-04-26T11:39:01.307Z,858.00
2019-04-26T11:40:00.923Z,857.00
2019-04-26T11:41:06.114Z,860.00
2019-04-26T11:42:01.764Z,858.00
2019-04-26T11:43:03.574Z,859.00
2019-04-26T11:44:03.926Z,860.00
2019-04-26T11:45:06.320Z,859.00
2019-04-26T11:46:04.898Z,859.00
2019-04-26T11:47:07.807Z,859.00
2019-04-26T11:48:04.588Z,859.00
2019-04-26T11:49:07.196Z,858.00
2019-04-26T11:50:05.592Z,857.00
2019-04-26T11:51:06.497Z,857.00
2019-04-26T11:52:07.997Z,857.00
2019-04-26T11:53:10.115Z,857.00
2019-04-26T11:54:08.011Z,856.00
2019-04-26T11:55:09.582Z,855.00
2019-04-26T11:56:10.240Z,856.00
2019-04-26T11:57:11.965Z,857.00
2019-04-26T11:58:10.654Z,857.00
2019-04-26T11:59:12.679Z,856.00
2019-04-26T12:00:13.184Z,857.00
2019-04-26T12:01:13.725Z,859.00
2019-04-26T12:02:16.190Z,857.00
2019-04-26T12:03:13.972Z,857.00
2019-04-26T12:04:15.743Z,856.00
2019-04-26T12:05:16.370Z,855.00
2019-04-26T12:06:17.166Z,855.00
2019-04-26T12:07:17.743Z,855.00
2019-04-26T12:08:18.195Z,846.00
2019-04-26T12:09:18.684Z,855.00
2019-04-26T12:10:19.116Z,855.00
2019-04-26T12:10:33.690Z,854.00
2019-04-26T12:11:35.387Z,855.00
2019-04-26T12:12:34.805Z,856.00
2019-04-26T12:13:36.413Z,859.00
2019-04-26T12:14:35.875Z,859.00
2019-04-26T12:15:39.078Z,860.00
2019-04-26T12:16:48.094Z,858.00
2019-04-26T12:17:38.003Z,857.00
2019-04-26T12:18:40.310Z,858.00
2019-04-26T12:19:38.990Z,858.00
2019-04-26T12:20:40.630Z,849.00
2019-04-26T12:21:39.814Z,848.00
2019-04-26T12:22:43.311Z,859.00
2019-04-26T12:23:41.317Z,861.00
2019-04-26T12:24:43.181Z,855.00